Time;durP1;ratioP1;P1;durP2;ratioP2;P2;SDS_P1;SDS_P2;PMS_P1;PMS_P2;Temp;Humidity;BMP_temperature;BMP_pressure;BME280_temperature;BME280_humidity;BME280_pressure;Samples;Min_cycle;Max_cycle;Signal;HPM_P1;HPM_P2
2022/01/04 00:00:14;;;;;;;20.67;15.45;;;;;;;;;;5049066;28;20497;-56
2022/01/04 00:02:40;;;;;;;23.10;16.70;;;;;;;;;;5054978;28;20021;-57
2022/01/04 00:05:05;;;;;;;23.08;15.85;;;;;;;;;;5046308;28;20036;-57
2022/01/04 00:07:31;;;;;;;20.00;15.27;;;;;;;;;;5047394;28;20059;-57
2022/01/04 00:09:57;;;;;;;24.90;14.63;;;;;;;;;;5049214;28;20075;-57
2022/01/04 00:15:06;;;;;;;21.33;15.07;;;;;;;;;;5049356;28;20584;-57
2022/01/04 00:17:31;;;;;;;22.88;15.85;;;;;;;;;;5047999;28;20013;-56
2022/01/04 00:19:56;;;;;;;20.85;14.32;;;;;;;;;;5048905;28;20063;-57
2022/01/04 00:22:21;;;;;;;22.50;16.67;;;;;;;;;;5049984;28;20028;-56
2022/01/04 00:24:47;;;;;;;24.07;16.20;;;;;;;;;;5050860;28;20940;-57
2022/01/04 00:27:12;;;;;;;26.42;15.25;;;;;;;;;;5050225;28;20997;-57
2022/01/04 00:29:37;;;;;;;21.50;14.57;;;;;;;;;;5049812;28;20052;-57
2022/01/04 00:32:02;;;;;;;18.20;14.77;;;;;;;;;;5050569;28;20150;-56
2022/01/04 00:34:27;;;;;;;20.42;16.45;;;;;;;;;;5048828;28;20400;-57
2022/01/04 00:36:53;;;;;;;28.25;16.38;;;;;;;;;;5053436;28;20617;-57
2022/01/04 00:39:18;;;;;;;27.10;15.13;;;;;;;;;;5050590;28;20124;-57
2022/01/04 00:41:43;;;;;;;17.87;15.83;;;;;;;;;;5047697;28;20156;-57
2022/01/04 00:44:08;;;;;;;24.35;14.02;;;;;;;;;;5046974;28;20036;-56
2022/01/04 00:46:34;;;;;;;27.77;15.30;;;;;;;;;;5049704;28;20017;-57
2022/01/04 00:49:11;;;;;;;26.20;15.75;;;;;;;;;;5051041;28;20485;-56
2022/01/04 00:51:41;;;;;;;19.98;16.52;;;;;;;;;;5048936;28;20021;-57
2022/01/04 00:54:06;;;;;;;19.40;16.73;;;;;;;;;;5043498;28;20052;-56
2022/01/04 00:56:31;;;;;;;18.10;16.20;;;;;;;;;;5044323;28;20021;-57
2022/01/04 00:58:56;;;;;;;25.48;14.77;;;;;;;;;;5040396;28;20021;-56
2022/01/04 01:01:22;;;;;;;25.67;17.07;;;;;;;;;;5043986;28;20033;-56
2022/01/04 01:03:47;;;;;;;18.23;15.18;;;;;;;;;;5042896;28;20021;-56
2022/01/04 01:06:12;;;;;;;22.92;14.93;;;;;;;;;;5050291;28;20017;-57
2022/01/04 01:08:37;;;;;;;19.20;16.73;;;;;;;;;;5047268;28;20464;-57
2022/01/04 01:11:04;;;;;;;20.37;15.90;;;;;;;;;;5048691;28;20063;-56
2022/01/04 01:13:29;;;;;;;27.05;15.15;;;;;;;;;;5051720;28;20497;-57
2022/01/04 01:15:55;;;;;;;15.88;14.23;;;;;;;;;;5048500;28;20512;-56
2022/01/04 01:18:20;;;;;;;22.63;17.05;;;;;;;;;;5041822;28;20049;-57
2022/01/04 01:20:46;;;;;;;17.10;14.10;;;;;;;;;;5048652;28;20045;-56
2022/01/04 01:23:11;;;;;;;19.35;14.52;;;;;;;;;;5049864;28;20508;-57
2022/01/04 01:25:36;;;;;;;15.38;13.82;;;;;;;;;;5045926;28;20063;-57
2022/01/04 01:28:01;;;;;;;23.87;14.47;;;;;;;;;;5050721;28;20472;-56
2022/01/04 01:30:28;;;;;;;20.17;15.57;;;;;;;;;;5045643;28;20454;-57
2022/01/04 01:32:53;;;;;;;19.15;15.20;;;;;;;;;;5050312;28;20104;-57
2022/01/04 01:35:19;;;;;;;18.98;14.18;;;;;;;;;;5048675;28;20175;-57
2022/01/04 01:37:44;;;;;;;17.95;13.90;;;;;;;;;;5050707;28;20021;-57
2022/01/04 01:40:10;;;;;;;17.02;15.27;;;;;;;;;;5052289;28;20048;-57
2022/01/04 01:42:35;;;;;;;19.52;14.57;;;;;;;;;;5054457;28;20598;-57
2022/01/04 01:45:00;;;;;;;20.25;14.02;;;;;;;;;;5052468;28;20488;-57
2022/01/04 01:47:25;;;;;;;24.27;15.17;;;;;;;;;;5053699;28;20047;-57
2022/01/04 01:49:50;;;;;;;15.40;12.57;;;;;;;;;;5052869;28;20036;-57
2022/01/04 01:52:16;;;;;;;24.95;15.68;;;;;;;;;;5055013;28;20453;-57
2022/01/04 01:54:42;;;;;;;14.25;11.73;;;;;;;;;;5051847;28;20029;-57
2022/01/04 01:57:07;;;;;;;16.73;14.90;;;;;;;;;;5050930;28;20441;-57
2022/01/04 01:59:32;;;;;;;21.75;13.77;;;;;;;;;;5051193;28;20083;-57
2022/01/04 02:01:57;;;;;;;20.90;13.68;;;;;;;;;;5053396;28;20019;-57
2022/01/04 02:04:22;;;;;;;17.40;12.93;;;;;;;;;;5051961;28;20116;-57
2022/01/04 02:06:47;;;;;;;23.87;14.70;;;;;;;;;;5060795;28;20012;-57
2022/01/04 02:09:13;;;;;;;16.73;12.20;;;;;;;;;;5052825;28;20925;-57
2022/01/04 02:11:38;;;;;;;16.23;12.43;;;;;;;;;;5061998;28;20028;-57
2022/01/04 02:14:03;;;;;;;17.37;12.13;;;;;;;;;;5071764;28;20447;-57
2022/01/04 02:16:29;;;;;;;14.23;12.75;;;;;;;;;;5055477;28;20478;-57
2022/01/04 02:19:04;;;;;;;26.83;13.63;;;;;;;;;;5066397;28;20048;-57
2022/01/04 02:21:30;;;;;;;19.80;13.45;;;;;;;;;;5052828;28;20655;-57
2022/01/04 02:23:55;;;;;;;25.08;13.65;;;;;;;;;;5052167;28;20091;-56
2022/01/04 02:26:21;;;;;;;22.42;13.68;;;;;;;;;;5070051;28;20029;-57
2022/01/04 02:28:46;;;;;;;14.35;12.93;;;;;;;;;;5057997;28;20452;-56
2022/01/04 02:31:12;;;;;;;15.65;11.52;;;;;;;;;;5070786;28;20020;-57
2022/01/04 02:33:37;;;;;;;12.97;11.73;;;;;;;;;;5071293;28;20469;-57
2022/01/04 02:36:02;;;;;;;19.87;12.50;;;;;;;;;;5067145;28;20029;-57
2022/01/04 02:38:27;;;;;;;17.48;12.05;;;;;;;;;;5064342;28;20104;-58
2022/01/04 02:40:52;;;;;;;17.45;12.18;;;;;;;;;;5061597;28;20037;-57
2022/01/04 02:43:18;;;;;;;19.38;13.43;;;;;;;;;;5052657;28;20056;-58
2022/01/04 02:45:43;;;;;;;17.17;11.80;;;;;;;;;;5051279;28;20037;-56
2022/01/04 02:48:08;;;;;;;16.90;13.55;;;;;;;;;;5056624;28;20029;-56
2022/01/04 02:50:33;;;;;;;18.40;12.43;;;;;;;;;;5050215;28;20068;-56
2022/01/04 02:52:58;;;;;;;12.80;11.35;;;;;;;;;;5057854;28;20039;-56
2022/01/04 02:55:24;;;;;;;14.50;11.68;;;;;;;;;;5055917;28;20044;-56
2022/01/04 02:57:49;;;;;;;18.73;13.45;;;;;;;;;;5057622;28;20398;-56
2022/01/04 03:00:15;;;;;;;18.05;13.05;;;;;;;;;;5069324;28;20036;-56
2022/01/04 03:02:41;;;;;;;28.08;14.93;;;;;;;;;;5052548;28;20375;-56
2022/01/04 03:05:07;;;;;;;23.00;14.48;;;;;;;;;;5051166;28;20033;-57
2022/01/04 03:07:32;;;;;;;20.08;13.10;;;;;;;;;;5055671;28;20031;-56
2022/01/04 03:09:58;;;;;;;14.40;13.00;;;;;;;;;;5071105;28;20040;-56
2022/01/04 03:12:23;;;;;;;15.80;11.93;;;;;;;;;;5061761;28;20032;-57
2022/01/04 03:14:48;;;;;;;15.40;12.00;;;;;;;;;;5054074;28;20032;-56
2022/01/04 03:17:13;;;;;;;20.77;13.27;;;;;;;;;;5071695;28;20028;-57
2022/01/04 03:19:38;;;;;;;21.37;13.30;;;;;;;;;;5050634;28;20045;-57
2022/01/04 03:22:04;;;;;;;17.07;14.83;;;;;;;;;;5051912;28;20025;-56
2022/01/04 03:24:29;;;;;;;15.25;13.23;;;;;;;;;;5053879;28;20454;-57
2022/01/04 03:26:54;;;;;;;19.60;13.63;;;;;;;;;;5072491;28;20024;-57
2022/01/04 03:29:20;;;;;;;22.83;16.05;;;;;;;;;;5053791;28;20459;-56
2022/01/04 03:31:45;;;;;;;17.83;13.38;;;;;;;;;;5056601;28;20033;-57
2022/01/04 03:34:10;;;;;;;17.65;13.10;;;;;;;;;;5050945;28;20033;-56
2022/01/04 03:36:36;;;;;;;15.40;13.63;;;;;;;;;;5051487;28;20404;-56
2022/01/04 03:39:04;;;;;;;29.58;16.48;;;;;;;;;;5065171;28;20028;-57
2022/01/04 03:41:30;;;;;;;25.35;13.43;;;;;;;;;;5071054;28;20495;-56
2022/01/04 03:43:55;;;;;;;17.25;13.52;;;;;;;;;;5069516;28;20055;-57
2022/01/04 03:46:20;;;;;;;17.23;11.63;;;;;;;;;;5052987;28;20048;-56
2022/01/04 03:48:46;;;;;;;23.75;14.35;;;;;;;;;;5057591;28;20533;-56
2022/01/04 03:51:11;;;;;;;15.30;13.47;;;;;;;;;;5070138;28;20403;-56
2022/01/04 03:53:36;;;;;;;21.75;15.38;;;;;;;;;;5071724;28;20427;-56
2022/01/04 03:56:02;;;;;;;23.77;15.30;;;;;;;;;;5070351;28;20036;-56
2022/01/04 03:58:27;;;;;;;18.58;16.52;;;;;;;;;;5067525;28;20017;-56
2022/01/04 04:00:52;;;;;;;17.65;14.80;;;;;;;;;;5069912;28;20033;-57
2022/01/04 04:03:17;;;;;;;18.67;15.02;;;;;;;;;;5071595;28;20376;-56
2022/01/04 04:05:42;;;;;;;18.95;14.73;;;;;;;;;;5054497;28;20175;-56
2022/01/04 04:08:08;;;;;;;18.20;14.07;;;;;;;;;;5061653;28;20055;-56
2022/01/04 04:10:33;;;;;;;20.92;14.80;;;;;;;;;;5052449;28;20029;-56
2022/01/04 04:12:58;;;;;;;17.50;15.37;;;;;;;;;;5070524;28;20391;-56
2022/01/04 04:15:23;;;;;;;18.43;14.70;;;;;;;;;;5070032;28;20462;-56
2022/01/04 04:17:48;;;;;;;21.13;15.25;;;;;;;;;;5066571;28;20136;-58
2022/01/04 04:20:14;;;;;;;17.42;13.90;;;;;;;;;;5049538;28;20033;-58
2022/01/04 04:22:39;;;;;;;16.70;14.13;;;;;;;;;;5054335;28;20129;-57
2022/01/04 04:25:05;;;;;;;21.23;15.48;;;;;;;;;;5066330;28;20029;-58
2022/01/04 04:27:30;;;;;;;20.17;14.68;;;;;;;;;;5052096;28;20017;-58
2022/01/04 04:29:55;;;;;;;18.65;16.08;;;;;;;;;;5069920;28;20483;-58
2022/01/04 04:32:21;;;;;;;20.92;15.75;;;;;;;;;;5070898;28;20024;-58
2022/01/04 04:34:46;;;;;;;19.48;16.20;;;;;;;;;;5069234;28;20063;-58
2022/01/04 04:37:11;;;;;;;20.90;15.88;;;;;;;;;;5059732;28;20083;-56
2022/01/04 04:39:37;;;;;;;27.88;18.58;;;;;;;;;;5068120;28;20043;-58
2022/01/04 04:42:02;;;;;;;26.48;17.80;;;;;;;;;;5070652;28;20056;-58
2022/01/04 04:44:27;;;;;;;23.00;16.55;;;;;;;;;;5052915;28;20037;-58
2022/01/04 04:46:52;;;;;;;26.17;16.77;;;;;;;;;;5051178;28;20009;-57
2022/01/04 04:49:17;;;;;;;20.10;16.00;;;;;;;;;;5066357;28;20056;-57
2022/01/04 04:51:43;;;;;;;20.98;17.27;;;;;;;;;;5070843;28;20114;-57
2022/01/04 04:54:08;;;;;;;24.35;18.70;;;;;;;;;;5046684;28;20055;-58
2022/01/04 04:56:34;;;;;;;25.88;19.13;;;;;;;;;;5049658;28;20017;-57
2022/01/04 04:58:59;;;;;;;27.27;21.08;;;;;;;;;;5047688;28;20105;-58
2022/01/04 05:01:25;;;;;;;21.05;17.67;;;;;;;;;;5050350;28;20120;-58
2022/01/04 05:03:52;;;;;;;21.33;17.97;;;;;;;;;;5048377;28;20021;-57
2022/01/04 05:06:17;;;;;;;23.88;18.63;;;;;;;;;;5050601;28;20431;-58
2022/01/04 05:08:42;;;;;;;32.58;20.13;;;;;;;;;;5047874;28;20090;-57
2022/01/04 05:11:07;;;;;;;24.08;18.27;;;;;;;;;;5047976;28;20041;-55
2022/01/04 05:13:32;;;;;;;28.70;18.30;;;;;;;;;;5050855;28;20030;-56
2022/01/04 05:15:58;;;;;;;27.10;18.30;;;;;;;;;;5052462;28;20083;-56
2022/01/04 05:18:23;;;;;;;31.00;21.15;;;;;;;;;;5054772;28;20041;-56
2022/01/04 05:20:48;;;;;;;24.70;17.83;;;;;;;;;;5056442;28;20043;-56
2022/01/04 05:23:13;;;;;;;25.90;19.00;;;;;;;;;;5054151;28;20455;-56
2022/01/04 05:25:38;;;;;;;20.67;17.67;;;;;;;;;;5052373;28;20480;-56
2022/01/04 05:28:04;;;;;;;23.10;17.92;;;;;;;;;;5055627;28;20435;-56
2022/01/04 05:30:29;;;;;;;26.13;21.13;;;;;;;;;;5052833;28;20458;-56
2022/01/04 05:32:54;;;;;;;17.97;16.07;;;;;;;;;;5054385;28;20079;-56
2022/01/04 05:35:19;;;;;;;21.70;16.75;;;;;;;;;;5057975;28;20490;-56
2022/01/04 05:37:44;;;;;;;21.67;17.48;;;;;;;;;;5065558;28;20029;-56
2022/01/04 05:40:10;;;;;;;21.67;17.77;;;;;;;;;;5059449;28;20040;-56
2022/01/04 05:42:35;;;;;;;28.13;20.67;;;;;;;;;;5072923;28;20067;-56
2022/01/04 05:45:00;;;;;;;22.90;18.70;;;;;;;;;;5072924;28;20060;-57
2022/01/04 05:47:25;;;;;;;27.08;18.83;;;;;;;;;;5073914;28;20502;-56
2022/01/04 05:49:51;;;;;;;23.42;17.45;;;;;;;;;;5072214;28;20028;-56
2022/01/04 05:52:16;;;;;;;25.92;22.02;;;;;;;;;;5074333;28;20021;-56
2022/01/04 05:54:43;;;;;;;26.17;19.33;;;;;;;;;;5072403;28;20032;-56
2022/01/04 05:57:08;;;;;;;26.45;22.30;;;;;;;;;;5073763;28;20498;-56
2022/01/04 05:59:34;;;;;;;21.40;18.98;;;;;;;;;;5072146;28;20670;-56
2022/01/04 06:01:59;;;;;;;28.77;20.45;;;;;;;;;;5073842;28;20032;-56
2022/01/04 06:04:24;;;;;;;26.83;19.00;;;;;;;;;;5072130;28;20033;-56
2022/01/04 06:06:50;;;;;;;30.40;21.57;;;;;;;;;;5073757;28;20099;-56
2022/01/04 06:09:22;;;;;;;25.50;21.50;;;;;;;;;;5072163;28;21013;-56
2022/01/04 06:16:57;;;;;;;22.13;19.90;;;;;;;;;;5073500;28;20035;-56
2022/01/04 06:19:22;;;;;;;24.35;18.70;;;;;;;;;;5071620;28;20479;-56
2022/01/04 06:21:48;;;;;;;30.05;20.25;;;;;;;;;;5073150;28;20023;-55
2022/01/04 06:24:13;;;;;;;31.67;22.83;;;;;;;;;;5070939;28;20043;-56
2022/01/04 06:26:38;;;;;;;26.20;20.30;;;;;;;;;;5054617;28;20036;-56
2022/01/04 06:29:03;;;;;;;29.27;21.33;;;;;;;;;;5052066;28;20040;-56
2022/01/04 06:31:29;;;;;;;29.53;19.97;;;;;;;;;;5053145;28;20415;-56
2022/01/04 06:33:55;;;;;;;32.33;19.38;;;;;;;;;;5051732;28;20778;-56
2022/01/04 06:36:20;;;;;;;25.98;19.38;;;;;;;;;;5053180;28;20096;-55
2022/01/04 06:38:45;;;;;;;30.55;21.95;;;;;;;;;;5051389;28;20117;-55
2022/01/04 06:41:10;;;;;;;24.97;20.57;;;;;;;;;;5053181;28;20017;-56
2022/01/04 06:43:35;;;;;;;37.15;20.65;;;;;;;;;;5052638;28;20439;-56
2022/01/04 06:46:01;;;;;;;30.60;20.42;;;;;;;;;;5051577;28;20044;-56
2022/01/04 06:48:26;;;;;;;31.80;18.33;;;;;;;;;;5052636;28;20103;-55
2022/01/04 06:50:51;;;;;;;24.57;19.53;;;;;;;;;;5051383;28;20036;-55
2022/01/04 06:53:16;;;;;;;28.83;20.15;;;;;;;;;;5053185;28;20025;-56
2022/01/04 06:55:41;;;;;;;28.87;21.27;;;;;;;;;;5050948;28;20116;-56
2022/01/04 06:58:07;;;;;;;26.08;19.35;;;;;;;;;;5052652;28;20476;-56
2022/01/04 07:00:32;;;;;;;29.07;19.37;;;;;;;;;;5051153;28;20040;-55
2022/01/04 07:02:57;;;;;;;36.97;19.23;;;;;;;;;;5052453;28;20435;-56
2022/01/04 07:05:22;;;;;;;21.88;18.83;;;;;;;;;;5051093;28;20040;-56
2022/01/04 07:07:47;;;;;;;22.87;18.10;;;;;;;;;;5052399;28;20020;-56
2022/01/04 07:10:12;;;;;;;20.70;17.25;;;;;;;;;;5050862;28;20455;-55
2022/01/04 07:12:38;;;;;;;26.63;18.25;;;;;;;;;;5052510;28;20075;-56
2022/01/04 07:15:03;;;;;;;31.70;20.73;;;;;;;;;;5050998;28;20056;-56
2022/01/04 07:17:28;;;;;;;28.20;19.63;;;;;;;;;;5051768;28;20025;-56
2022/01/04 07:19:53;;;;;;;29.07;20.37;;;;;;;;;;5050578;28;20049;-55
2022/01/04 07:22:18;;;;;;;27.10;19.52;;;;;;;;;;5052186;28;20532;-56
2022/01/04 07:24:44;;;;;;;25.60;20.20;;;;;;;;;;5050206;28;20373;-56
2022/01/04 07:27:09;;;;;;;24.37;20.70;;;;;;;;;;5052412;28;20459;-55
2022/01/04 07:29:34;;;;;;;28.03;18.37;;;;;;;;;;5050648;28;20462;-54
2022/01/04 07:31:59;;;;;;;31.00;20.45;;;;;;;;;;5051806;28;20422;-54
2022/01/04 07:34:24;;;;;;;26.45;19.42;;;;;;;;;;5050627;28;20037;-54
2022/01/04 07:36:49;;;;;;;36.85;20.73;;;;;;;;;;5051579;28;20058;-54
2022/01/04 07:39:14;;;;;;;30.87;21.17;;;;;;;;;;5048549;28;20140;-54
2022/01/04 07:41:40;;;;;;;30.70;22.63;;;;;;;;;;5051041;28;20016;-54
2022/01/04 07:44:05;;;;;;;30.48;22.48;;;;;;;;;;5050569;28;20494;-54
2022/01/04 07:46:30;;;;;;;31.00;22.47;;;;;;;;;;5051288;28;20025;-54
2022/01/04 07:48:55;;;;;;;28.30;23.70;;;;;;;;;;5050550;28;20427;-54
2022/01/04 07:51:20;;;;;;;29.70;20.63;;;;;;;;;;5051738;28;20439;-54
2022/01/04 07:53:45;;;;;;;27.67;20.20;;;;;;;;;;5049882;28;20530;-54
2022/01/04 07:56:11;;;;;;;32.33;23.07;;;;;;;;;;5052035;28;20419;-55
2022/01/04 07:58:36;;;;;;;36.08;24.05;;;;;;;;;;5051271;28;20456;-54
2022/01/04 08:01:02;;;;;;;33.13;23.97;;;;;;;;;;5049898;28;20040;-54
2022/01/04 08:03:27;;;;;;;26.88;21.48;;;;;;;;;;5051630;28;20459;-54
2022/01/04 08:05:52;;;;;;;35.58;19.83;;;;;;;;;;5050045;28;20033;-54
2022/01/04 08:08:17;;;;;;;27.57;20.00;;;;;;;;;;5051806;28;20009;-54
2022/01/04 08:10:45;;;;;;;28.07;20.57;;;;;;;;;;5049218;28;20036;-54
2022/01/04 08:13:10;;;;;;;27.77;20.35;;;;;;;;;;5051627;28;20970;-54
2022/01/04 08:15:35;;;;;;;31.73;24.90;;;;;;;;;;5049677;28;20041;-54
2022/01/04 08:18:00;;;;;;;26.63;22.27;;;;;;;;;;5051032;28;20446;-54
2022/01/04 08:20:26;;;;;;;27.60;23.38;;;;;;;;;;5049839;28;20522;-54
2022/01/04 08:22:51;;;;;;;26.23;20.57;;;;;;;;;;5051127;28;20088;-54
2022/01/04 08:25:16;;;;;;;31.25;21.75;;;;;;;;;;5049437;28;20036;-54
2022/01/04 08:27:41;;;;;;;31.90;20.88;;;;;;;;;;5045911;28;20021;-55
2022/01/04 08:30:08;;;;;;;25.27;21.17;;;;;;;;;;5049485;28;20530;-54
2022/01/04 08:32:34;;;;;;;29.10;23.67;;;;;;;;;;5031684;28;20112;-54
2022/01/04 08:34:59;;;;;;;31.17;24.55;;;;;;;;;;5049224;28;20170;-55
2022/01/04 08:37:26;;;;;;;27.05;22.85;;;;;;;;;;5051117;28;20025;-54
2022/01/04 08:39:51;;;;;;;28.77;21.70;;;;;;;;;;5049039;28;20047;-54
2022/01/04 08:42:17;;;;;;;29.37;23.43;;;;;;;;;;5049460;28;20021;-54
2022/01/04 08:44:42;;;;;;;32.40;22.63;;;;;;;;;;5049272;28;20029;-54
2022/01/04 08:47:08;;;;;;;27.80;19.92;;;;;;;;;;5049910;28;20021;-54
2022/01/04 08:49:34;;;;;;;33.67;22.00;;;;;;;;;;5049555;28;20029;-54
2022/01/04 08:51:59;;;;;;;35.95;22.15;;;;;;;;;;5051069;28;20025;-54
2022/01/04 08:54:25;;;;;;;33.60;23.27;;;;;;;;;;5049013;28;20040;-57
2022/01/04 08:56:50;;;;;;;34.10;22.38;;;;;;;;;;5050659;28;20025;-53
2022/01/04 08:59:15;;;;;;;33.05;25.23;;;;;;;;;;5049434;28;20120;-53
2022/01/04 09:01:41;;;;;;;31.83;22.90;;;;;;;;;;5050465;28;20383;-54
2022/01/04 09:04:06;;;;;;;29.38;22.73;;;;;;;;;;5049652;28;20455;-54
2022/01/04 09:06:32;;;;;;;33.05;23.48;;;;;;;;;;5050559;28;20009;-57
2022/01/04 09:08:57;;;;;;;31.17;21.58;;;;;;;;;;5049077;28;20055;-54
2022/01/04 09:11:23;;;;;;;27.42;23.42;;;;;;;;;;5051083;28;20469;-54
2022/01/04 09:13:48;;;;;;;32.10;24.33;;;;;;;;;;5049054;28;20017;-54
2022/01/04 09:18:57;;;;;;;31.70;24.50;;;;;;;;;;5049272;28;20071;-54
2022/01/04 09:21:25;;;;;;;32.72;21.60;;;;;;;;;;5050838;28;20013;-53
2022/01/04 09:23:51;;;;;;;23.73;18.45;;;;;;;;;;5048883;28;20017;-54
2022/01/04 09:26:17;;;;;;;28.55;20.42;;;;;;;;;;5050606;28;20028;-54
2022/01/04 09:28:43;;;;;;;33.03;21.52;;;;;;;;;;5050210;28;20029;-57
2022/01/04 09:31:08;;;;;;;26.40;21.05;;;;;;;;;;5048809;28;20507;-54
2022/01/04 09:33:34;;;;;;;28.85;20.23;;;;;;;;;;5045252;28;20429;-54
2022/01/04 09:35:59;;;;;;;26.60;21.05;;;;;;;;;;5048922;28;20039;-54
2022/01/04 09:38:25;;;;;;;26.50;22.17;;;;;;;;;;5050236;28;20102;-54
2022/01/04 09:40:50;;;;;;;25.73;20.92;;;;;;;;;;5048030;28;20451;-54
2022/01/04 09:43:16;;;;;;;29.17;22.23;;;;;;;;;;5050665;28;20023;-54
2022/01/04 09:45:41;;;;;;;28.45;23.10;;;;;;;;;;5047680;28;20112;-54
2022/01/04 09:48:07;;;;;;;36.03;23.20;;;;;;;;;;5050292;28;20455;-54
2022/01/04 09:50:34;;;;;;;30.17;22.40;;;;;;;;;;5048866;28;20087;-54
2022/01/04 09:52:59;;;;;;;34.72;24.75;;;;;;;;;;5049927;28;20519;-54
2022/01/04 09:55:25;;;;;;;34.92;25.40;;;;;;;;;;5048876;28;20112;-54
2022/01/04 09:57:50;;;;;;;41.83;26.83;;;;;;;;;;5050165;28;20029;-54
2022/01/04 10:00:16;;;;;;;31.30;23.50;;;;;;;;;;5051871;28;20451;-54
2022/01/04 10:02:45;;;;;;;33.40;24.85;;;;;;;;;;5053766;28;20021;-54
2022/01/04 10:05:12;;;;;;;30.50;23.15;;;;;;;;;;5052309;28;20033;-54
2022/01/04 10:07:38;;;;;;;32.50;24.67;;;;;;;;;;5053219;28;20024;-54
2022/01/04 10:10:04;;;;;;;40.40;28.33;;;;;;;;;;5052434;28;20037;-54
2022/01/04 10:12:33;;;;;;;32.05;22.58;;;;;;;;;;5053644;28;20020;-54
2022/01/04 10:14:58;;;;;;;35.03;27.92;;;;;;;;;;5051688;28;20037;-54
2022/01/04 10:17:28;;;;;;;35.47;26.73;;;;;;;;;;5053859;28;20027;-54
2022/01/04 10:19:54;;;;;;;30.48;24.38;;;;;;;;;;5051911;28;20481;-54
2022/01/04 10:22:23;;;;;;;33.50;24.55;;;;;;;;;;5053193;28;20017;-54
2022/01/04 10:24:49;;;;;;;40.13;27.35;;;;;;;;;;5051791;28;20056;-54
2022/01/04 10:27:26;;;;;;;45.22;29.33;;;;;;;;;;5053518;28;20009;-55
2022/01/04 10:30:08;;;;;;;33.72;27.10;;;;;;;;;;5051480;28;20037;-54
2022/01/04 10:32:47;;;;;;;34.53;25.08;;;;;;;;;;5053075;28;20037;-54
2022/01/04 10:35:12;;;;;;;;;;;;;;;;;;5052458;28;20048;-54
2022/01/04 10:37:39;;;;;;;32.45;23.67;;;;;;;;;;5052547;28;19905;-55
2022/01/04 10:40:05;;;;;;;42.22;29.83;;;;;;;;;;5046724;28;20084;-54
2022/01/04 10:42:30;;;;;;;33.40;24.95;;;;;;;;;;5033199;28;20037;-55
2022/01/04 10:44:55;;;;;;;38.70;28.67;;;;;;;;;;5031331;28;20034;-54
2022/01/04 10:47:25;;;;;;;37.40;26.20;;;;;;;;;;5032667;28;20021;-54
2022/01/04 10:49:50;;;;;;;49.70;27.40;;;;;;;;;;5030359;28;20552;-54
2022/01/04 10:52:20;;;;;;;41.17;26.00;;;;;;;;;;5031855;28;20555;-54
2022/01/04 10:54:47;;;;;;;40.00;28.67;;;;;;;;;;5038805;28;20025;-54
2022/01/04 10:57:12;;;;;;;41.95;29.27;;;;;;;;;;5052005;28;20111;-54
2022/01/04 10:59:37;;;;;;;41.88;29.67;;;;;;;;;;5049370;28;20128;-54
2022/01/04 11:02:03;;;;;;;34.72;27.00;;;;;;;;;;5051937;28;20035;-54
2022/01/04 11:04:28;;;;;;;38.03;25.25;;;;;;;;;;5051213;28;20481;-54
2022/01/04 11:06:57;;;;;;;37.33;28.20;;;;;;;;;;5052479;28;20025;-54
2022/01/04 11:09:22;;;;;;;30.90;23.13;;;;;;;;;;5051267;28;20467;-54
2022/01/04 11:11:48;;;;;;;34.83;23.58;;;;;;;;;;5051970;28;20063;-54
2022/01/04 11:14:13;;;;;;;36.03;24.17;;;;;;;;;;5050829;28;20091;-55
2022/01/04 11:16:40;;;;;;;28.83;21.65;;;;;;;;;;5050710;28;20025;-55
2022/01/04 11:19:05;;;;;;;27.17;19.40;;;;;;;;;;5050524;28;20060;-55
2022/01/04 11:21:32;;;;;;;25.60;19.63;;;;;;;;;;5052109;28;20025;-55
2022/01/04 11:23:58;;;;;;;24.48;17.40;;;;;;;;;;5071054;28;20070;-54
2022/01/04 11:26:24;;;;;;;24.40;16.95;;;;;;;;;;5065788;28;20100;-55
2022/01/04 11:28:51;;;;;;;31.08;19.95;;;;;;;;;;5047729;28;20037;-55
2022/01/04 11:31:19;;;;;;;20.90;13.15;;;;;;;;;;5050075;28;20020;-55
2022/01/04 11:33:47;;;;;;;14.15;11.73;;;;;;;;;;5049949;28;20040;-53
2022/01/04 11:36:13;;;;;;;16.45;12.50;;;;;;;;;;5050423;28;20016;-55
2022/01/04 11:38:38;;;;;;;18.42;11.27;;;;;;;;;;5046782;28;20535;-55
2022/01/04 11:41:04;;;;;;;16.17;12.20;;;;;;;;;;5047867;28;20049;-55
2022/01/04 11:43:33;;;;;;;12.80;10.95;;;;;;;;;;5046553;28;20846;-55
2022/01/04 11:45:58;;;;;;;14.07;11.52;;;;;;;;;;5049646;28;20036;-55
2022/01/04 11:48:24;;;;;;;13.07;11.77;;;;;;;;;;5069086;28;20020;-55
2022/01/04 11:50:49;;;;;;;15.80;8.27;;;;;;;;;;5067650;28;20035;-55
2022/01/04 11:53:14;;;;;;;9.60;7.47;;;;;;;;;;5069713;28;20034;-55
2022/01/04 11:55:46;;;;;;;13.73;9.70;;;;;;;;;;5066299;28;20033;-55
2022/01/04 11:58:16;;;;;;;9.27;8.30;;;;;;;;;;5050986;28;20029;-54
2022/01/04 12:00:45;;;;;;;10.35;8.70;;;;;;;;;;5049541;28;20041;-55
2022/01/04 12:03:13;;;;;;;9.85;8.82;;;;;;;;;;5051246;28;20028;-55
2022/01/04 12:05:41;;;;;;;9.40;8.40;;;;;;;;;;5049200;28;20033;-55
2022/01/04 12:08:19;;;;;;;12.10;9.53;;;;;;;;;;5051204;28;20064;-55
2022/01/04 12:10:45;;;;;;;13.32;8.90;;;;;;;;;;5049330;28;20443;-54
2022/01/04 12:13:20;;;;;;;16.83;10.75;;;;;;;;;;5050817;28;20071;-54
2022/01/04 12:15:48;;;;;;;11.30;9.82;;;;;;;;;;5049411;28;20029;-55
2022/01/04 12:18:23;;;;;;;14.93;10.27;;;;;;;;;;5051053;28;20079;-55
2022/01/04 12:20:49;;;;;;;17.08;9.38;;;;;;;;;;5048916;28;20056;-55
2022/01/04 12:23:30;;;;;;;12.25;9.95;;;;;;;;;;5050251;28;20013;-55
2022/01/04 12:26:08;;;;;;;14.43;12.70;;;;;;;;;;5049463;28;20103;-55
2022/01/04 12:28:34;;;;;;;13.20;11.82;;;;;;;;;;5050297;28;20044;-55
2022/01/04 12:31:20;;;;;;;18.45;11.57;;;;;;;;;;5049419;28;20033;-55
2022/01/04 12:33:48;;;;;;;18.73;13.05;;;;;;;;;;5050737;28;20055;-55
2022/01/04 12:36:24;;;;;;;9.50;7.35;;;;;;;;;;5049136;28;20505;-55
2022/01/04 12:38:50;;;;;;;16.30;10.35;;;;;;;;;;5050524;28;20013;-55
2022/01/04 12:41:15;;;;;;;14.07;9.38;;;;;;;;;;5049222;28;20495;-55
2022/01/04 12:43:40;;;;;;;13.55;10.30;;;;;;;;;;5050296;28;20063;-56
2022/01/04 12:46:06;;;;;;;10.00;8.53;;;;;;;;;;5047983;28;20495;-56
2022/01/04 12:48:48;;;;;;;12.07;8.60;;;;;;;;;;5047494;28;20112;-55
2022/01/04 12:51:24;;;;;;;13.73;7.03;;;;;;;;;;5048804;28;20037;-56
2022/01/04 12:53:49;;;;;;;10.52;7.15;;;;;;;;;;5050285;28;20051;-56
2022/01/04 12:56:14;;;;;;;8.20;6.70;;;;;;;;;;5049104;28;20445;-55
2022/01/04 12:58:39;;;;;;;8.02;6.90;;;;;;;;;;5049909;28;20021;-56
2022/01/04 13:01:04;;;;;;;14.17;6.87;;;;;;;;;;5048974;28;20033;-55
2022/01/04 13:03:30;;;;;;;13.02;7.40;;;;;;;;;;5050103;28;20017;-56
2022/01/04 13:06:00;;;;;;;13.13;7.43;;;;;;;;;;5048685;28;20041;-56
2022/01/04 13:08:26;;;;;;;12.20;5.82;;;;;;;;;;5050205;28;20013;-55
2022/01/04 13:11:01;;;;;;;11.00;5.95;;;;;;;;;;5048720;28;20041;-55
2022/01/04 13:13:26;;;;;;;9.82;3.97;;;;;;;;;;5050128;28;20013;-55
2022/01/04 13:15:51;;;;;;;5.00;3.53;;;;;;;;;;5047713;28;20037;-55
2022/01/04 13:18:25;;;;;;;10.80;4.07;;;;;;;;;;5050320;28;21004;-56
2022/01/04 13:20:50;;;;;;;6.85;3.53;;;;;;;;;;5045151;28;20497;-56
2022/01/04 13:23:18;;;;;;;5.28;3.40;;;;;;;;;;5049894;28;20017;-55
2022/01/04 13:25:43;;;;;;;4.15;2.85;;;;;;;;;;5048467;28;20033;-56
2022/01/04 13:28:08;;;;;;;9.32;5.07;;;;;;;;;;5049024;28;20035;-55
2022/01/04 13:30:39;;;;;;;12.47;4.60;;;;;;;;;;5046428;28;20025;-56
2022/01/04 13:33:05;;;;;;;6.75;3.05;;;;;;;;;;5050565;28;21012;-55
2022/01/04 13:35:37;;;;;;;11.15;5.20;;;;;;;;;;5051894;28;20070;-56
2022/01/04 13:38:04;;;;;;;13.95;4.88;;;;;;;;;;5053951;28;20071;-55
2022/01/04 13:40:31;;;;;;;9.27;4.57;;;;;;;;;;5052224;28;20029;-55
2022/01/04 13:43:00;;;;;;;8.35;3.15;;;;;;;;;;5053235;28;20491;-55
2022/01/04 13:45:25;;;;;;;12.75;3.42;;;;;;;;;;5050296;28;20037;-56
2022/01/04 13:47:52;;;;;;;9.40;4.88;;;;;;;;;;5053779;28;20021;-56
2022/01/04 13:50:20;;;;;;;6.50;4.30;;;;;;;;;;5051879;28;20031;-56
2022/01/04 13:52:56;;;;;;;8.75;4.60;;;;;;;;;;5053417;28;20025;-56
2022/01/04 13:55:21;;;;;;;6.82;3.97;;;;;;;;;;5052158;28;20033;-56
2022/01/04 13:57:46;;;;;;;8.35;3.80;;;;;;;;;;5052934;28;20185;-56
2022/01/04 14:00:33;;;;;;;6.50;3.47;;;;;;;;;;5051926;28;20091;-55
2022/01/04 14:02:58;;;;;;;6.50;4.50;;;;;;;;;;5053442;28;20025;-55
2022/01/04 14:05:23;;;;;;;5.78;4.22;;;;;;;;;;5051604;28;20040;-55
2022/01/04 14:07:56;;;;;;;10.00;4.87;;;;;;;;;;5053095;28;20021;-56
2022/01/04 14:16:26;;;;;;;2.90;2.70;;;;;;;;;;5050909;28;20036;-55
2022/01/04 14:19:00;;;;;;;8.18;3.92;;;;;;;;;;5049060;28;20049;-55
2022/01/04 14:21:52;;;;;;;4.60;2.88;;;;;;;;;;5051586;28;20040;-55
2022/01/04 14:24:29;;;;;;;8.13;3.35;;;;;;;;;;5038233;28;20078;-55
2022/01/04 14:26:55;;;;;;;5.05;3.35;;;;;;;;;;5031244;28;20442;-56
2022/01/04 14:29:39;;;;;;;4.40;3.13;;;;;;;;;;5030622;28;20030;-55
2022/01/04 14:32:08;;;;;;;5.13;3.10;;;;;;;;;;5051551;28;20120;-55